Eko 5 — SVAR7 — position and weather

sailwx.info

Track history (hours):
 
Tides and Currents Weather Stations Pressure Air Temp Water Temp Dewpoint Dewpoint Depression Visibility Wind Speed Wind Dir Waves Ship Positions

Eko 5

Last reported at 2018-Jan-20 09:30 UTC. Time now 2018-Jan-20 09:37 UTC.
Position N 37°55' E 023°37'.

Length 88 m; draft 5 m.

Type: Ship. MMSI: 240911000.

Date/timePositionNaut miles runAvg speedWind from/ knotsBaromVisibWave heightAir tempDewpointWater temp
2018-Jan-20 09:30N 37°55' E 023°37'1 1.0
2018-Jan-20 09:00N 37°55' E 023°36'3 6.3
2018-Jan-20 08:30N 37°52' E 023°38'5 9.9
2018-Jan-20 08:00N 37°47' E 023°41'5 9.8
2018-Jan-20 07:30N 37°43' E 023°44'5 9.2
2018-Jan-20 07:00N 37°39' E 023°48'5 9.3
2018-Jan-20 06:24N 37°37' E 023°54'4 9.3
2018-Jan-20 05:59N 37°37' E 023°59'5 9.9
2018-Jan-20 05:30N 37°37' E 024°05'5 9.8
2018-Jan-20 05:00N 37°39' E 024°10'710.3
2018-Jan-20 04:21N 37°43' E 024°17'4 9.8
2018-Jan-20 03:55N 37°46' E 024°21'4 9.4
2018-Jan-20 03:30N 37°48' E 024°25'5 9.5
2018-Jan-20 03:00N 37°51' E 024°30'  
2018-Jan-12 14:57N 38°02' E 023°32'0 0.0
2018-Jan-12 14:30N 38°02' E 023°32'0 0.0
2018-Jan-12 14:00N 38°02' E 023°32'0 0.0
2018-Jan-12 13:30N 38°02' E 023°32'0 0.0
2018-Jan-12 13:00N 38°02' E 023°32'0 0.0
2018-Jan-12 12:30N 38°02' E 023°32'0 0.0
2018-Jan-12 12:00N 38°02' E 023°32'0 0.1
2018-Jan-12 11:30N 38°02' E 023°32'0 0.1
2018-Jan-12 11:00N 38°02' E 023°32'0 0.1
2018-Jan-12 10:30N 38°02' E 023°32'0 0.0
2018-Jan-12 10:00N 38°02' E 023°32'0 0.0
2018-Jan-12 09:30N 38°02' E 023°32'1 1.6
2018-Jan-12 09:01N 38°01' E 023°32'4 8.4
2018-Jan-12 08:31N 37°57' E 023°35'4 7.9
2018-Jan-12 07:57N 37°53' E 023°38'4 9.7
2018-Jan-12 07:30N 37°49' E 023°40'5 9.4
2018-Jan-12 07:00N 37°45' E 023°42'5 9.5
2018-Jan-12 06:31N 37°41' E 023°45'5 9.3
2018-Jan-12 06:00N 37°38' E 023°50'5 9.4
2018-Jan-12 05:25N 37°36' E 023°57'4 9.4
2018-Jan-12 05:01N 37°36' E 024°02'5 9.7
2018-Jan-12 04:31N 37°37' E 024°08'5 9.9
2018-Jan-12 04:00N 37°40' E 024°12'5 9.8
2018-Jan-12 03:30N 37°43' E 024°17'5 9.7
2018-Jan-12 03:00N 37°47' E 024°22'510.1
2018-Jan-12 02:30N 37°50' E 024°27'510.0
2018-Jan-12 02:00N 37°53' E 024°31'56 9.0
2018-Jan-11 19:50N 38°46' E 024°08'  
Track history (hours):
 
Tides and Currents Weather Stations Pressure Air Temp Water Temp Dewpoint Dewpoint Depression Visibility Wind Speed Wind Dir Waves Ship Positions

Eko 5

Last reported at 2018-Jan-20 09:30 UTC. Time now 2018-Jan-20 09:37 UTC.
Position N 37°55' E 023°37'.

Length 88 m; draft 5 m.

Type: Ship. MMSI: 240911000.

Date/timePositionNaut miles runAvg speedWind from/ knotsBaromVisibWave heightAir tempDewpointWater temp
2018-Jan-20 09:30N 37°55' E 023°37'1 1.0
2018-Jan-20 09:00N 37°55' E 023°36'3 6.3
2018-Jan-20 08:30N 37°52' E 023°38'5 9.9
2018-Jan-20 08:00N 37°47' E 023°41'5 9.8
2018-Jan-20 07:30N 37°43' E 023°44'5 9.2
2018-Jan-20 07:00N 37°39' E 023°48'5 9.3
2018-Jan-20 06:24N 37°37' E 023°54'4 9.3
2018-Jan-20 05:59N 37°37' E 023°59'5 9.9
2018-Jan-20 05:30N 37°37' E 024°05'5 9.8
2018-Jan-20 05:00N 37°39' E 024°10'710.3
2018-Jan-20 04:21N 37°43' E 024°17'4 9.8
2018-Jan-20 03:55N 37°46' E 024°21'4 9.4
2018-Jan-20 03:30N 37°48' E 024°25'5 9.5
2018-Jan-20 03:00N 37°51' E 024°30'  
2018-Jan-12 14:57N 38°02' E 023°32'0 0.0
2018-Jan-12 14:30N 38°02' E 023°32'0 0.0
2018-Jan-12 14:00N 38°02' E 023°32'0 0.0
2018-Jan-12 13:30N 38°02' E 023°32'0 0.0
2018-Jan-12 13:00N 38°02' E 023°32'0 0.0
2018-Jan-12 12:30N 38°02' E 023°32'0 0.0
2018-Jan-12 12:00N 38°02' E 023°32'0 0.1
2018-Jan-12 11:30N 38°02' E 023°32'0 0.1
2018-Jan-12 11:00N 38°02' E 023°32'0 0.1
2018-Jan-12 10:30N 38°02' E 023°32'0 0.0
2018-Jan-12 10:00N 38°02' E 023°32'0 0.0
2018-Jan-12 09:30N 38°02' E 023°32'1 1.6
2018-Jan-12 09:01N 38°01' E 023°32'4 8.4
2018-Jan-12 08:31N 37°57' E 023°35'4 7.9
2018-Jan-12 07:57N 37°53' E 023°38'4 9.7
2018-Jan-12 07:30N 37°49' E 023°40'5 9.4
2018-Jan-12 07:00N 37°45' E 023°42'5 9.5
2018-Jan-12 06:31N 37°41' E 023°45'5 9.3
2018-Jan-12 06:00N 37°38' E 023°50'5 9.4
2018-Jan-12 05:25N 37°36' E 023°57'4 9.4
2018-Jan-12 05:01N 37°36' E 024°02'5 9.7
2018-Jan-12 04:31N 37°37' E 024°08'5 9.9
2018-Jan-12 04:00N 37°40' E 024°12'5 9.8
2018-Jan-12 03:30N 37°43' E 024°17'5 9.7
2018-Jan-12 03:00N 37°47' E 024°22'510.1
2018-Jan-12 02:30N 37°50' E 024°27'510.0
2018-Jan-12 02:00N 37°53' E 024°31'56 9.0
2018-Jan-11 19:50N 38°46' E 024°08'  

Dump ship's entire track history